08:15
Airports
History
Links
Donate
Help keep this website running!
PayPal
Bitcoin
Information on this page is community maintained and may be outdated or inaccurate and is intended for reference only or PC simulator navigating!
Always use approved charts for navigating.
EDPQ
Schmidgaden
Schmidgaden (EDPQ)
Schmidgaden, Bayern, Germany (92546)
(U)
Lat/Lng:49° 25' 50.97" N / 12° 5' 53.99" E
49.430824 / 12.09833
Elevation:1247'ft 380mMSL
ID / ICAO:EDPQ
Runways:1
Longest:(12-30) 515.0m 1,690ft Asphalt
Distance To
Airport ID:
Nearby VORs <50NM
Nearby NDBs
Nearby WeatherUpdated 03-28-17 07:58 GMT
Nearby weather at ETIH, HOHENFELS AAF located 18.9 nautical miles from EDPQ
Altimeter: 30.23
Visibility: 6.2 statute miles
Wind: 0 knots (000°)
Temp: 9°c 48°f
Humidity: %

METAR: ETIH 280758Z AUTO 00000KT 9999 CLR 09/00 A3023 RMK AO2 SLP247

(Powered by phpweather)
Runway 12 / 30
Dimensions:515 x 10.1m 1690' x 33'ft
Surface:Asphalt
Runway 12 [A]Runway 30 [B]
Heading:119°TH 299°TH
Lat:
Lng:
49° 25' 55.05"N
12° 5' 42.66"E
49° 25' 46.88"N
12° 6' 5.31"E
Google Map
Nearby Airports
(U) Nittenau Bruck 16.9 NM
EDNM SSE 148°
(U) Weiden 17.2 NM
EDQW N
(C) HOHENFELS AAF 18.9 NM
ETIH (WX) SW 218°
(C) GRAFENWOHR AAF 19.8 NM
ETIC (WX) NNW 339°
(U) VILSECK AAF 20.4 NM
ETOI NW 313°
(U) Rosenthal Field Ploessen 32.9 NM
EDQP NNW 335°
(C) Tachov 37.2 NM
LKTD NE 47°
VFR Chart
Flight Planning at SkyVector.com